sensor_id;sensor_type;location;lat;lon;timestamp;temperature;humidity
1546;DHT22;766;51.502;9.752;2023-09-12T00:00:12;22.00;99.90
1546;DHT22;766;51.502;9.752;2023-09-12T00:02:41;22.10;99.90
1546;DHT22;766;51.502;9.752;2023-09-12T00:05:09;22.10;99.90
1546;DHT22;766;51.502;9.752;2023-09-12T00:07:39;22.00;99.90
1546;DHT22;766;51.502;9.752;2023-09-12T00:10:08;21.90;99.90
1546;DHT22;766;51.502;9.752;2023-09-12T00:12:38;21.90;99.90
1546;DHT22;766;51.502;9.752;2023-09-12T00:15:09;21.80;99.90
1546;DHT22;766;51.502;9.752;2023-09-12T00:17:37;21.80;99.90
1546;DHT22;766;51.502;9.752;2023-09-12T00:20:07;21.70;99.90
1546;DHT22;766;51.502;9.752;2023-09-12T00:22:35;21.70;99.90
1546;DHT22;766;51.502;9.752;2023-09-12T00:25:04;21.70;99.90
1546;DHT22;766;51.502;9.752;2023-09-12T00:27:32;21.60;99.90
1546;DHT22;766;51.502;9.752;2023-09-12T00:30:03;21.50;99.90
1546;DHT22;766;51.502;9.752;2023-09-12T00:35:52;21.30;99.90
1546;DHT22;766;51.502;9.752;2023-09-12T00:38:20;20.90;99.90
1546;DHT22;766;51.502;9.752;2023-09-12T00:40:51;20.70;99.90
1546;DHT22;766;51.502;9.752;2023-09-12T00:43:19;20.80;99.90
1546;DHT22;766;51.502;9.752;2023-09-12T00:45:48;21.00;99.90
1546;DHT22;766;51.502;9.752;2023-09-12T00:48:17;20.90;99.90
1546;DHT22;766;51.502;9.752;2023-09-12T00:50:46;21.00;99.90
1546;DHT22;766;51.502;9.752;2023-09-12T00:53:15;21.00;99.90
1546;DHT22;766;51.502;9.752;2023-09-12T00:55:48;21.10;99.90
1546;DHT22;766;51.502;9.752;2023-09-12T00:58:18;21.20;99.90
1546;DHT22;766;51.502;9.752;2023-09-12T01:00:48;21.10;99.90
1546;DHT22;766;51.502;9.752;2023-09-12T01:03:16;21.00;99.90
1546;DHT22;766;51.502;9.752;2023-09-12T01:05:46;21.00;99.90
1546;DHT22;766;51.502;9.752;2023-09-12T01:08:14;20.80;99.90
1546;DHT22;766;51.502;9.752;2023-09-12T01:10:42;20.80;99.90
1546;DHT22;766;51.502;9.752;2023-09-12T01:13:14;20.50;99.90
1546;DHT22;766;51.502;9.752;2023-09-12T01:15:45;20.40;99.90
1546;DHT22;766;51.502;9.752;2023-09-12T01:18:15;20.40;99.90
1546;DHT22;766;51.502;9.752;2023-09-12T01:21:01;20.40;99.90
1546;DHT22;766;51.502;9.752;2023-09-12T01:23:43;20.30;99.90
1546;DHT22;766;51.502;9.752;2023-09-12T01:26:39;20.20;99.90
1546;DHT22;766;51.502;9.752;2023-09-12T01:29:12;20.20;99.90
1546;DHT22;766;51.502;9.752;2023-09-12T01:31:42;20.20;99.90
1546;DHT22;766;51.502;9.752;2023-09-12T01:34:11;20.00;99.90
1546;DHT22;766;51.502;9.752;2023-09-12T01:36:41;20.00;99.90
1546;DHT22;766;51.502;9.752;2023-09-12T01:39:09;19.60;99.90
1546;DHT22;766;51.502;9.752;2023-09-12T01:41:40;19.60;99.90
1546;DHT22;766;51.502;9.752;2023-09-12T01:44:11;19.40;99.90
1546;DHT22;766;51.502;9.752;2023-09-12T01:46:40;19.20;99.90
1546;DHT22;766;51.502;9.752;2023-09-12T01:49:10;18.90;99.90
1546;DHT22;766;51.502;9.752;2023-09-12T01:51:39;18.90;99.90
1546;DHT22;766;51.502;9.752;2023-09-12T01:54:09;19.10;99.90
1546;DHT22;766;51.502;9.752;2023-09-12T01:56:38;19.30;99.90
1546;DHT22;766;51.502;9.752;2023-09-12T01:59:07;19.40;99.90
1546;DHT22;766;51.502;9.752;2023-09-12T02:01:37;19.40;99.90
1546;DHT22;766;51.502;9.752;2023-09-12T02:04:05;19.40;99.90
1546;DHT22;766;51.502;9.752;2023-09-12T02:06:35;19.40;99.90
1546;DHT22;766;51.502;9.752;2023-09-12T02:09:04;19.30;99.90
1546;DHT22;766;51.502;9.752;2023-09-12T02:11:32;19.40;99.90
1546;DHT22;766;51.502;9.752;2023-09-12T02:14:00;19.40;99.90
1546;DHT22;766;51.502;9.752;2023-09-12T02:16:29;19.50;99.90
1546;DHT22;766;51.502;9.752;2023-09-12T02:18:59;19.60;99.90
1546;DHT22;766;51.502;9.752;2023-09-12T02:21:27;19.60;99.90
1546;DHT22;766;51.502;9.752;2023-09-12T02:23:55;19.60;99.90
1546;DHT22;766;51.502;9.752;2023-09-12T02:26:24;19.50;99.90
1546;DHT22;766;51.502;9.752;2023-09-12T02:28:52;19.50;99.90
1546;DHT22;766;51.502;9.752;2023-09-12T02:31:20;19.10;99.90
1546;DHT22;766;51.502;9.752;2023-09-12T02:33:48;18.90;99.90
1546;DHT22;766;51.502;9.752;2023-09-12T02:36:18;18.80;99.90
1546;DHT22;766;51.502;9.752;2023-09-12T02:38:46;18.90;99.90
1546;DHT22;766;51.502;9.752;2023-09-12T02:41:14;18.90;99.90
1546;DHT22;766;51.502;9.752;2023-09-12T02:43:42;18.80;99.90
1546;DHT22;766;51.502;9.752;2023-09-12T02:46:10;18.70;99.90
1546;DHT22;766;51.502;9.752;2023-09-12T02:48:39;18.80;99.90
1546;DHT22;766;51.502;9.752;2023-09-12T02:51:08;19.00;99.90
1546;DHT22;766;51.502;9.752;2023-09-12T02:53:37;19.00;99.90
1546;DHT22;766;51.502;9.752;2023-09-12T02:56:05;19.10;99.90
1546;DHT22;766;51.502;9.752;2023-09-12T02:58:34;19.10;99.90
1546;DHT22;766;51.502;9.752;2023-09-12T03:01:02;18.90;99.90
1546;DHT22;766;51.502;9.752;2023-09-12T03:03:32;18.90;99.90
1546;DHT22;766;51.502;9.752;2023-09-12T03:06:02;19.10;99.90
1546;DHT22;766;51.502;9.752;2023-09-12T03:08:30;19.10;99.90
1546;DHT22;766;51.502;9.752;2023-09-12T03:11:00;19.00;99.90
1546;DHT22;766;51.502;9.752;2023-09-12T03:13:29;19.00;99.90
1546;DHT22;766;51.502;9.752;2023-09-12T03:15:58;19.10;99.90
1546;DHT22;766;51.502;9.752;2023-09-12T03:18:26;19.10;99.90
1546;DHT22;766;51.502;9.752;2023-09-12T03:20:54;19.10;99.90
1546;DHT22;766;51.502;9.752;2023-09-12T03:23:23;19.10;99.90
1546;DHT22;766;51.502;9.752;2023-09-12T03:25:51;19.10;99.90
1546;DHT22;766;51.502;9.752;2023-09-12T03:28:20;19.00;99.90
1546;DHT22;766;51.502;9.752;2023-09-12T03:30:49;19.00;99.90
1546;DHT22;766;51.502;9.752;2023-09-12T03:33:17;19.00;99.90
1546;DHT22;766;51.502;9.752;2023-09-12T03:35:45;19.00;99.90
1546;DHT22;766;51.502;9.752;2023-09-12T03:38:14;18.90;99.90
1546;DHT22;766;51.502;9.752;2023-09-12T03:40:42;18.90;99.90
1546;DHT22;766;51.502;9.752;2023-09-12T03:43:10;18.80;99.90
1546;DHT22;766;51.502;9.752;2023-09-12T03:45:40;18.80;99.90
1546;DHT22;766;51.502;9.752;2023-09-12T03:48:08;18.60;99.90
1546;DHT22;766;51.502;9.752;2023-09-12T03:50:37;18.50;99.90
1546;DHT22;766;51.502;9.752;2023-09-12T03:53:05;18.50;99.90
1546;DHT22;766;51.502;9.752;2023-09-12T03:55:33;18.60;99.90
1546;DHT22;766;51.502;9.752;2023-09-12T03:58:01;18.70;99.90
1546;DHT22;766;51.502;9.752;2023-09-12T04:00:30;18.80;99.90
1546;DHT22;766;51.502;9.752;2023-09-12T04:02:59;18.80;99.90
1546;DHT22;766;51.502;9.752;2023-09-12T04:05:28;18.80;99.90
1546;DHT22;766;51.502;9.752;2023-09-12T04:07:56;18.80;99.90
1546;DHT22;766;51.502;9.752;2023-09-12T04:10:24;18.60;99.90
1546;DHT22;766;51.502;9.752;2023-09-12T04:12:52;18.50;99.90
1546;DHT22;766;51.502;9.752;2023-09-12T04:15:20;18.60;99.90
1546;DHT22;766;51.502;9.752;2023-09-12T04:17:49;18.60;99.90
1546;DHT22;766;51.502;9.752;2023-09-12T04:20:19;18.50;99.90
1546;DHT22;766;51.502;9.752;2023-09-12T04:22:47;18.50;99.90
1546;DHT22;766;51.502;9.752;2023-09-12T04:25:15;18.40;99.90
1546;DHT22;766;51.502;9.752;2023-09-12T04:27:43;18.30;99.90
1546;DHT22;766;51.502;9.752;2023-09-12T04:30:12;18.30;99.90
1546;DHT22;766;51.502;9.752;2023-09-12T04:32:40;18.30;99.90
1546;DHT22;766;51.502;9.752;2023-09-12T04:35:09;18.30;99.90
1546;DHT22;766;51.502;9.752;2023-09-12T04:37:39;18.40;99.90
1546;DHT22;766;51.502;9.752;2023-09-12T04:40:08;18.50;99.90
1546;DHT22;766;51.502;9.752;2023-09-12T04:42:36;18.60;99.90
1546;DHT22;766;51.502;9.752;2023-09-12T04:45:07;18.30;99.90
1546;DHT22;766;51.502;9.752;2023-09-12T04:47:35;18.30;99.90
1546;DHT22;766;51.502;9.752;2023-09-12T04:50:05;18.30;99.90
1546;DHT22;766;51.502;9.752;2023-09-12T04:52:36;18.40;99.90
1546;DHT22;766;51.502;9.752;2023-09-12T04:55:06;18.20;99.90
1546;DHT22;766;51.502;9.752;2023-09-12T04:57:34;18.10;99.90
1546;DHT22;766;51.502;9.752;2023-09-12T05:00:05;18.10;99.90
1546;DHT22;766;51.502;9.752;2023-09-12T05:02:34;18.10;99.90
1546;DHT22;766;51.502;9.752;2023-09-12T05:05:02;17.80;99.90
1546;DHT22;766;51.502;9.752;2023-09-12T05:07:30;17.80;99.90
1546;DHT22;766;51.502;9.752;2023-09-12T05:09:59;17.50;99.90
1546;DHT22;766;51.502;9.752;2023-09-12T05:12:29;17.20;99.90
1546;DHT22;766;51.502;9.752;2023-09-12T05:14:57;17.30;99.90
1546;DHT22;766;51.502;9.752;2023-09-12T05:17:25;17.50;99.90
1546;DHT22;766;51.502;9.752;2023-09-12T05:19:53;17.60;99.90
1546;DHT22;766;51.502;9.752;2023-09-12T05:22:21;17.70;99.90
1546;DHT22;766;51.502;9.752;2023-09-12T05:24:50;17.80;99.90
1546;DHT22;766;51.502;9.752;2023-09-12T05:27:18;17.80;99.90
1546;DHT22;766;51.502;9.752;2023-09-12T05:29:48;17.70;99.90
1546;DHT22;766;51.502;9.752;2023-09-12T05:32:16;17.80;99.90
1546;DHT22;766;51.502;9.752;2023-09-12T05:34:44;17.90;99.90
1546;DHT22;766;51.502;9.752;2023-09-12T05:37:16;18.20;99.90
1546;DHT22;766;51.502;9.752;2023-09-12T05:39:45;18.50;99.90
1546;DHT22;766;51.502;9.752;2023-09-12T05:42:14;18.80;99.90
1546;DHT22;766;51.502;9.752;2023-09-12T05:44:49;19.00;99.90
1546;DHT22;766;51.502;9.752;2023-09-12T05:47:20;19.10;99.90
1546;DHT22;766;51.502;9.752;2023-09-12T05:49:48;19.20;99.90
1546;DHT22;766;51.502;9.752;2023-09-12T05:52:17;19.40;99.90
1546;DHT22;766;51.502;9.752;2023-09-12T05:54:45;19.50;99.90
1546;DHT22;766;51.502;9.752;2023-09-12T05:57:13;19.70;99.90
1546;DHT22;766;51.502;9.752;2023-09-12T05:59:41;19.80;99.90
1546;DHT22;766;51.502;9.752;2023-09-12T06:02:11;19.90;99.90
1546;DHT22;766;51.502;9.752;2023-09-12T06:04:39;20.00;99.90
1546;DHT22;766;51.502;9.752;2023-09-12T06:07:08;20.10;99.90
1546;DHT22;766;51.502;9.752;2023-09-12T06:09:36;20.30;99.90
1546;DHT22;766;51.502;9.752;2023-09-12T06:12:06;20.40;99.90
1546;DHT22;766;51.502;9.752;2023-09-12T06:14:34;20.40;99.90
1546;DHT22;766;51.502;9.752;2023-09-12T06:17:03;20.50;99.90
1546;DHT22;766;51.502;9.752;2023-09-12T06:19:32;20.50;99.90
1546;DHT22;766;51.502;9.752;2023-09-12T06:22:01;20.70;99.90
1546;DHT22;766;51.502;9.752;2023-09-12T06:24:29;20.80;99.90
1546;DHT22;766;51.502;9.752;2023-09-12T06:26:57;20.90;99.90
1546;DHT22;766;51.502;9.752;2023-09-12T06:29:26;21.00;99.90
1546;DHT22;766;51.502;9.752;2023-09-12T06:31:54;21.00;99.90
1546;DHT22;766;51.502;9.752;2023-09-12T06:34:23;21.00;99.90
1546;DHT22;766;51.502;9.752;2023-09-12T06:36:53;21.20;99.90
1546;DHT22;766;51.502;9.752;2023-09-12T06:39:21;21.30;99.90
1546;DHT22;766;51.502;9.752;2023-09-12T06:41:51;21.40;99.90
1546;DHT22;766;51.502;9.752;2023-09-12T06:44:22;21.50;99.90
1546;DHT22;766;51.502;9.752;2023-09-12T06:46:50;21.30;99.90
1546;DHT22;766;51.502;9.752;2023-09-12T06:49:18;21.30;99.90
1546;DHT22;766;51.502;9.752;2023-09-12T06:51:46;21.40;99.90
1546;DHT22;766;51.502;9.752;2023-09-12T06:54:18;21.30;99.90
1546;DHT22;766;51.502;9.752;2023-09-12T06:56:47;21.00;99.90
1546;DHT22;766;51.502;9.752;2023-09-12T06:59:16;20.90;99.90
1546;DHT22;766;51.502;9.752;2023-09-12T07:01:45;20.90;99.90
1546;DHT22;766;51.502;9.752;2023-09-12T07:04:14;20.80;99.90
1546;DHT22;766;51.502;9.752;2023-09-12T07:06:42;20.90;99.90
1546;DHT22;766;51.502;9.752;2023-09-12T07:09:10;20.90;99.90
1546;DHT22;766;51.502;9.752;2023-09-12T07:11:43;20.90;99.90
1546;DHT22;766;51.502;9.752;2023-09-12T07:14:11;20.70;99.90
1546;DHT22;766;51.502;9.752;2023-09-12T07:16:39;20.70;99.90
1546;DHT22;766;51.502;9.752;2023-09-12T07:19:07;20.60;99.90
1546;DHT22;766;51.502;9.752;2023-09-12T07:21:36;20.80;99.90
1546;DHT22;766;51.502;9.752;2023-09-12T07:24:05;20.90;99.90
1546;DHT22;766;51.502;9.752;2023-09-12T07:26:34;21.10;99.90
1546;DHT22;766;51.502;9.752;2023-09-12T07:29:03;21.20;99.90
1546;DHT22;766;51.502;9.752;2023-09-12T07:31:34;21.20;99.90
1546;DHT22;766;51.502;9.752;2023-09-12T07:34:02;21.10;99.90
1546;DHT22;766;51.502;9.752;2023-09-12T07:36:34;21.00;99.90
1546;DHT22;766;51.502;9.752;2023-09-12T07:39:03;21.10;99.90
1546;DHT22;766;51.502;9.752;2023-09-12T07:41:32;21.10;99.90
1546;DHT22;766;51.502;9.752;2023-09-12T07:44:00;21.20;99.90
1546;DHT22;766;51.502;9.752;2023-09-12T07:46:33;21.30;99.90
1546;DHT22;766;51.502;9.752;2023-09-12T07:49:01;21.30;99.90
1546;DHT22;766;51.502;9.752;2023-09-12T07:51:29;21.30;99.90
1546;DHT22;766;51.502;9.752;2023-09-12T07:53:57;21.40;99.90
1546;DHT22;766;51.502;9.752;2023-09-12T07:56:25;21.60;99.90
1546;DHT22;766;51.502;9.752;2023-09-12T07:58:54;21.80;99.90
1546;DHT22;766;51.502;9.752;2023-09-12T08:01:22;21.90;99.90
1546;DHT22;766;51.502;9.752;2023-09-12T08:03:52;22.10;99.90
1546;DHT22;766;51.502;9.752;2023-09-12T08:06:20;22.50;99.90
1546;DHT22;766;51.502;9.752;2023-09-12T08:08:51;22.70;99.90
1546;DHT22;766;51.502;9.752;2023-09-12T08:11:19;22.80;99.90
1546;DHT22;766;51.502;9.752;2023-09-12T08:13:48;23.20;99.90
1546;DHT22;766;51.502;9.752;2023-09-12T08:16:17;23.60;99.90
1546;DHT22;766;51.502;9.752;2023-09-12T08:18:45;23.80;99.90
1546;DHT22;766;51.502;9.752;2023-09-12T08:21:15;23.80;99.90
1546;DHT22;766;51.502;9.752;2023-09-12T08:23:44;23.70;99.90
1546;DHT22;766;51.502;9.752;2023-09-12T08:26:12;23.70;99.90
1546;DHT22;766;51.502;9.752;2023-09-12T08:28:40;23.90;99.90
1546;DHT22;766;51.502;9.752;2023-09-12T08:31:09;24.00;99.90
1546;DHT22;766;51.502;9.752;2023-09-12T08:33:37;23.80;99.90
1546;DHT22;766;51.502;9.752;2023-09-12T08:36:05;23.80;99.90
1546;DHT22;766;51.502;9.752;2023-09-12T08:38:35;23.90;99.90
1546;DHT22;766;51.502;9.752;2023-09-12T08:41:03;23.50;99.90
1546;DHT22;766;51.502;9.752;2023-09-12T08:43:34;23.50;99.90
1546;DHT22;766;51.502;9.752;2023-09-12T08:46:04;23.70;99.90
1546;DHT22;766;51.502;9.752;2023-09-12T08:48:33;24.10;99.90
1546;DHT22;766;51.502;9.752;2023-09-12T08:51:02;24.80;99.90
1546;DHT22;766;51.502;9.752;2023-09-12T08:53:32;25.10;99.90
1546;DHT22;766;51.502;9.752;2023-09-12T08:56:01;25.40;99.90
1546;DHT22;766;51.502;9.752;2023-09-12T08:58:31;25.40;99.90
1546;DHT22;766;51.502;9.752;2023-09-12T09:01:00;25.40;99.90
1546;DHT22;766;51.502;9.752;2023-09-12T09:03:30;24.70;99.90
1546;DHT22;766;51.502;9.752;2023-09-12T09:05:59;24.50;99.90
1546;DHT22;766;51.502;9.752;2023-09-12T09:08:28;24.40;99.90
1546;DHT22;766;51.502;9.752;2023-09-12T09:10:57;24.20;99.90
1546;DHT22;766;51.502;9.752;2023-09-12T09:13:27;24.10;99.90
1546;DHT22;766;51.502;9.752;2023-09-12T09:16:11;24.00;99.90
1546;DHT22;766;51.502;9.752;2023-09-12T09:18:53;24.20;99.90
1546;DHT22;766;51.502;9.752;2023-09-12T09:21:23;24.20;99.90
1546;DHT22;766;51.502;9.752;2023-09-12T09:23:53;24.10;99.90
1546;DHT22;766;51.502;9.752;2023-09-12T09:26:22;24.20;99.90
1546;DHT22;766;51.502;9.752;2023-09-12T09:29:07;24.20;99.90
1546;DHT22;766;51.502;9.752;2023-09-12T09:31:40;24.60;99.90
1546;DHT22;766;51.502;9.752;2023-09-12T09:34:12;24.70;99.90
1546;DHT22;766;51.502;9.752;2023-09-12T09:36:44;24.80;99.90
1546;DHT22;766;51.502;9.752;2023-09-12T09:39:12;24.90;99.90
1546;DHT22;766;51.502;9.752;2023-09-12T09:41:41;25.00;99.90
1546;DHT22;766;51.502;9.752;2023-09-12T09:44:11;25.00;99.90
1546;DHT22;766;51.502;9.752;2023-09-12T09:46:43;25.00;99.90
1546;DHT22;766;51.502;9.752;2023-09-12T09:49:11;24.90;99.90
1546;DHT22;766;51.502;9.752;2023-09-12T09:51:42;24.80;99.90
1546;DHT22;766;51.502;9.752;2023-09-12T09:54:11;24.70;99.90
1546;DHT22;766;51.502;9.752;2023-09-12T09:56:45;24.60;99.90
1546;DHT22;766;51.502;9.752;2023-09-12T09:59:18;24.60;99.90
1546;DHT22;766;51.502;9.752;2023-09-12T10:01:48;24.50;99.90
1546;DHT22;766;51.502;9.752;2023-09-12T10:04:18;24.40;99.90
1546;DHT22;766;51.502;9.752;2023-09-12T10:06:47;24.40;99.90
1546;DHT22;766;51.502;9.752;2023-09-12T10:09:16;24.70;99.90
1546;DHT22;766;51.502;9.752;2023-09-12T10:11:46;25.90;99.90
1546;DHT22;766;51.502;9.752;2023-09-12T10:14:19;27.30;99.90
1546;DHT22;766;51.502;9.752;2023-09-12T10:16:48;28.30;99.90
1546;DHT22;766;51.502;9.752;2023-09-12T10:19:22;29.40;99.90
1546;DHT22;766;51.502;9.752;2023-09-12T10:21:54;30.70;99.90
1546;DHT22;766;51.502;9.752;2023-09-12T10:24:27;31.90;99.90
1546;DHT22;766;51.502;9.752;2023-09-12T10:26:56;33.00;99.90
1546;DHT22;766;51.502;9.752;2023-09-12T10:29:26;33.10;99.90
1546;DHT22;766;51.502;9.752;2023-09-12T10:31:55;33.60;99.90
1546;DHT22;766;51.502;9.752;2023-09-12T10:34:25;34.70;99.90
1546;DHT22;766;51.502;9.752;2023-09-12T10:36:55;35.40;99.90
1546;DHT22;766;51.502;9.752;2023-09-12T10:39:27;35.80;99.90
1546;DHT22;766;51.502;9.752;2023-09-12T10:41:58;35.90;99.90
1546;DHT22;766;51.502;9.752;2023-09-12T10:44:29;36.40;99.90
1546;DHT22;766;51.502;9.752;2023-09-12T10:46:58;36.40;99.90
1546;DHT22;766;51.502;9.752;2023-09-12T10:49:28;37.30;99.90
1546;DHT22;766;51.502;9.752;2023-09-12T10:51:57;36.40;99.90
1546;DHT22;766;51.502;9.752;2023-09-12T10:54:35;36.00;99.90
1546;DHT22;766;51.502;9.752;2023-09-12T10:57:05;36.90;99.90
1546;DHT22;766;51.502;9.752;2023-09-12T10:59:35;36.20;99.90
1546;DHT22;766;51.502;9.752;2023-09-12T11:02:28;36.20;99.90
1546;DHT22;766;51.502;9.752;2023-09-12T11:04:57;35.40;99.90
1546;DHT22;766;51.502;9.752;2023-09-12T11:07:31;35.20;99.90
1546;DHT22;766;51.502;9.752;2023-09-12T11:10:17;34.60;99.90
1546;DHT22;766;51.502;9.752;2023-09-12T11:12:47;33.90;99.90
1546;DHT22;766;51.502;9.752;2023-09-12T11:15:19;33.90;99.90
1546;DHT22;766;51.502;9.752;2023-09-12T11:17:49;33.80;99.90
1546;DHT22;766;51.502;9.752;2023-09-12T11:20:51;33.20;99.90
1546;DHT22;766;51.502;9.752;2023-09-12T11:23:20;32.80;99.90
1546;DHT22;766;51.502;9.752;2023-09-12T11:25:54;31.80;99.90
1546;DHT22;766;51.502;9.752;2023-09-12T11:28:31;31.10;99.90
1546;DHT22;766;51.502;9.752;2023-09-12T11:31:01;31.30;99.90
1546;DHT22;766;51.502;9.752;2023-09-12T11:33:33;31.30;99.90
1546;DHT22;766;51.502;9.752;2023-09-12T11:36:04;29.90;99.90
1546;DHT22;766;51.502;9.752;2023-09-12T11:38:37;28.90;99.90
1546;DHT22;766;51.502;9.752;2023-09-12T11:41:06;28.40;99.90
1546;DHT22;766;51.502;9.752;2023-09-12T11:43:37;28.20;99.90
1546;DHT22;766;51.502;9.752;2023-09-12T11:46:08;28.00;99.90
1546;DHT22;766;51.502;9.752;2023-09-12T11:48:37;28.00;99.90
1546;DHT22;766;51.502;9.752;2023-09-12T11:51:07;28.10;99.90
1546;DHT22;766;51.502;9.752;2023-09-12T11:53:35;27.90;99.90
1546;DHT22;766;51.502;9.752;2023-09-12T11:56:04;27.60;99.90
1546;DHT22;766;51.502;9.752;2023-09-12T11:58:32;27.50;99.90
1546;DHT22;766;51.502;9.752;2023-09-12T12:01:01;27.60;99.90
1546;DHT22;766;51.502;9.752;2023-09-12T12:03:31;28.20;99.90
1546;DHT22;766;51.502;9.752;2023-09-12T12:06:00;28.90;99.90
1546;DHT22;766;51.502;9.752;2023-09-12T12:08:28;29.90;99.90
1546;DHT22;766;51.502;9.752;2023-09-12T12:10:59;30.30;99.90
1546;DHT22;766;51.502;9.752;2023-09-12T12:13:28;30.70;99.90
1546;DHT22;766;51.502;9.752;2023-09-12T12:15:57;30.80;99.90
1546;DHT22;766;51.502;9.752;2023-09-12T12:18:25;30.70;99.90
1546;DHT22;766;51.502;9.752;2023-09-12T12:20:55;30.50;99.90
1546;DHT22;766;51.502;9.752;2023-09-12T12:23:24;30.20;99.90
1546;DHT22;766;51.502;9.752;2023-09-12T12:25:53;30.20;99.90
1546;DHT22;766;51.502;9.752;2023-09-12T12:28:21;30.10;99.90
1546;DHT22;766;51.502;9.752;2023-09-12T12:30:52;30.00;99.90
1546;DHT22;766;51.502;9.752;2023-09-12T12:33:22;29.80;99.90
1546;DHT22;766;51.502;9.752;2023-09-12T12:36:12;29.60;99.90
1546;DHT22;766;51.502;9.752;2023-09-12T12:38:40;29.50;99.90
1546;DHT22;766;51.502;9.752;2023-09-12T12:41:24;29.20;99.90
1546;DHT22;766;51.502;9.752;2023-09-12T12:43:57;29.10;99.90
1546;DHT22;766;51.502;9.752;2023-09-12T12:46:29;28.60;99.90
1546;DHT22;766;51.502;9.752;2023-09-12T12:48:58;28.50;99.90
1546;DHT22;766;51.502;9.752;2023-09-12T12:51:27;28.40;99.90
1546;DHT22;766;51.502;9.752;2023-09-12T12:54:04;28.30;99.90
1546;DHT22;766;51.502;9.752;2023-09-12T12:56:33;28.20;99.90
1546;DHT22;766;51.502;9.752;2023-09-12T12:59:05;28.00;99.90
1546;DHT22;766;51.502;9.752;2023-09-12T13:01:37;27.90;99.90
1546;DHT22;766;51.502;9.752;2023-09-12T13:04:06;27.80;99.90
1546;DHT22;766;51.502;9.752;2023-09-12T13:06:39;27.40;99.90
1546;DHT22;766;51.502;9.752;2023-09-12T13:09:08;27.30;99.90
1546;DHT22;766;51.502;9.752;2023-09-12T13:11:38;27.40;99.90
1546;DHT22;766;51.502;9.752;2023-09-12T13:14:07;27.40;99.90
1546;DHT22;766;51.502;9.752;2023-09-12T13:16:38;27.60;99.90
1546;DHT22;766;51.502;9.752;2023-09-12T13:19:09;27.30;99.90
1546;DHT22;766;51.502;9.752;2023-09-12T13:21:39;27.40;99.90
1546;DHT22;766;51.502;9.752;2023-09-12T13:24:08;27.40;99.90
1546;DHT22;766;51.502;9.752;2023-09-12T13:26:36;27.20;99.90
1546;DHT22;766;51.502;9.752;2023-09-12T13:29:04;27.10;99.90
1546;DHT22;766;51.502;9.752;2023-09-12T13:31:33;27.30;99.90
1546;DHT22;766;51.502;9.752;2023-09-12T13:34:01;27.30;99.90
1546;DHT22;766;51.502;9.752;2023-09-12T13:36:30;27.10;99.90
1546;DHT22;766;51.502;9.752;2023-09-12T13:38:59;26.70;99.90
1546;DHT22;766;51.502;9.752;2023-09-12T13:41:28;26.60;99.90
1546;DHT22;766;51.502;9.752;2023-09-12T13:43:56;26.70;99.90
1546;DHT22;766;51.502;9.752;2023-09-12T13:46:24;26.70;99.90
1546;DHT22;766;51.502;9.752;2023-09-12T13:48:53;26.80;99.90
1546;DHT22;766;51.502;9.752;2023-09-12T13:51:21;26.60;99.90
1546;DHT22;766;51.502;9.752;2023-09-12T13:53:49;26.40;99.90
1546;DHT22;766;51.502;9.752;2023-09-12T13:56:19;26.30;99.90
1546;DHT22;766;51.502;9.752;2023-09-12T13:58:47;26.30;99.90
1546;DHT22;766;51.502;9.752;2023-09-12T14:01:17;26.50;99.90
1546;DHT22;766;51.502;9.752;2023-09-12T14:04:01;26.60;99.90
1546;DHT22;766;51.502;9.752;2023-09-12T14:06:31;26.60;99.90
1546;DHT22;766;51.502;9.752;2023-09-12T14:09:03;26.70;99.90
1546;DHT22;766;51.502;9.752;2023-09-12T14:11:33;26.80;99.90
1546;DHT22;766;51.502;9.752;2023-09-12T14:14:04;26.90;99.90
1546;DHT22;766;51.502;9.752;2023-09-12T14:16:35;26.90;99.90
1546;DHT22;766;51.502;9.752;2023-09-12T14:19:03;27.00;99.90
1546;DHT22;766;51.502;9.752;2023-09-12T14:21:33;26.90;99.90
1546;DHT22;766;51.502;9.752;2023-09-12T14:24:02;26.60;99.90
1546;DHT22;766;51.502;9.752;2023-09-12T14:26:33;26.40;99.90
1546;DHT22;766;51.502;9.752;2023-09-12T14:29:01;26.50;99.90
1546;DHT22;766;51.502;9.752;2023-09-12T14:31:32;26.50;99.90
1546;DHT22;766;51.502;9.752;2023-09-12T14:34:00;26.40;99.90
1546;DHT22;766;51.502;9.752;2023-09-12T14:36:29;26.50;99.90
1546;DHT22;766;51.502;9.752;2023-09-12T14:38:57;26.50;99.90
1546;DHT22;766;51.502;9.752;2023-09-12T14:41:25;26.40;99.90
1546;DHT22;766;51.502;9.752;2023-09-12T14:43:55;26.30;99.90
1546;DHT22;766;51.502;9.752;2023-09-12T14:46:23;26.30;99.90
1546;DHT22;766;51.502;9.752;2023-09-12T14:48:52;26.30;99.90
1546;DHT22;766;51.502;9.752;2023-09-12T14:51:28;26.40;99.90
1546;DHT22;766;51.502;9.752;2023-09-12T14:54:01;26.40;99.90
1546;DHT22;766;51.502;9.752;2023-09-12T14:56:29;26.40;99.90
1546;DHT22;766;51.502;9.752;2023-09-12T14:58:59;26.30;99.90
1546;DHT22;766;51.502;9.752;2023-09-12T15:01:28;26.30;99.90
1546;DHT22;766;51.502;9.752;2023-09-12T15:03:57;26.30;99.90
1546;DHT22;766;51.502;9.752;2023-09-12T15:06:25;26.30;99.90
1546;DHT22;766;51.502;9.752;2023-09-12T15:08:53;26.30;99.90
1546;DHT22;766;51.502;9.752;2023-09-12T15:11:22;26.30;99.90
1546;DHT22;766;51.502;9.752;2023-09-12T15:13:50;26.30;99.90
1546;DHT22;766;51.502;9.752;2023-09-12T15:16:20;26.30;99.90
1546;DHT22;766;51.502;9.752;2023-09-12T15:18:49;26.40;99.90
1546;DHT22;766;51.502;9.752;2023-09-12T15:21:19;26.30;99.90
1546;DHT22;766;51.502;9.752;2023-09-12T15:23:47;26.20;99.90
1546;DHT22;766;51.502;9.752;2023-09-12T15:26:15;26.10;99.90
1546;DHT22;766;51.502;9.752;2023-09-12T15:28:44;26.10;99.90
1546;DHT22;766;51.502;9.752;2023-09-12T15:31:12;26.00;99.90
1546;DHT22;766;51.502;9.752;2023-09-12T15:33:41;26.00;99.90
1546;DHT22;766;51.502;9.752;2023-09-12T15:36:10;25.90;99.90
1546;DHT22;766;51.502;9.752;2023-09-12T15:38:39;25.80;99.90
1546;DHT22;766;51.502;9.752;2023-09-12T15:41:07;25.70;99.90
1546;DHT22;766;51.502;9.752;2023-09-12T15:43:37;25.50;99.90
1546;DHT22;766;51.502;9.752;2023-09-12T15:46:06;25.40;99.90
1546;DHT22;766;51.502;9.752;2023-09-12T15:48:36;25.30;99.90
1546;DHT22;766;51.502;9.752;2023-09-12T15:51:06;25.30;99.90
1546;DHT22;766;51.502;9.752;2023-09-12T15:53:34;25.30;99.90
1546;DHT22;766;51.502;9.752;2023-09-12T15:56:02;25.20;99.90
1546;DHT22;766;51.502;9.752;2023-09-12T15:58:31;25.20;99.90
1546;DHT22;766;51.502;9.752;2023-09-12T16:00:59;25.20;99.90
1546;DHT22;766;51.502;9.752;2023-09-12T16:03:29;25.20;99.90
1546;DHT22;766;51.502;9.752;2023-09-12T16:05:58;25.10;99.90
1546;DHT22;766;51.502;9.752;2023-09-12T16:08:28;25.10;99.90
1546;DHT22;766;51.502;9.752;2023-09-12T16:10:56;25.10;99.90
1546;DHT22;766;51.502;9.752;2023-09-12T16:13:24;25.10;99.90
1546;DHT22;766;51.502;9.752;2023-09-12T16:15:52;25.10;99.90
1546;DHT22;766;51.502;9.752;2023-09-12T16:18:23;25.10;99.90
1546;DHT22;766;51.502;9.752;2023-09-12T16:20:53;25.00;99.90
1546;DHT22;766;51.502;9.752;2023-09-12T16:23:21;25.00;99.90
1546;DHT22;766;51.502;9.752;2023-09-12T16:25:52;24.90;99.90
1546;DHT22;766;51.502;9.752;2023-09-12T16:28:21;24.80;99.90
1546;DHT22;766;51.502;9.752;2023-09-12T16:30:50;24.70;99.90
1546;DHT22;766;51.502;9.752;2023-09-12T16:33:18;24.70;99.90
1546;DHT22;766;51.502;9.752;2023-09-12T16:35:46;24.60;99.90